createdAt,value
2018-04-12T00:00:46.269Z,23.07
2018-04-12T00:03:12.903Z,23.04
2018-04-12T00:05:39.563Z,22.99
2018-04-12T00:08:06.231Z,23.04
2018-04-12T00:10:33.752Z,23.01
2018-04-12T00:13:00.395Z,23.02
2018-04-12T00:15:27.096Z,22.95
2018-04-12T00:17:54.985Z,22.94
2018-04-12T00:20:20.427Z,22.92
2018-04-12T00:22:47.058Z,22.93
2018-04-12T00:25:13.690Z,22.86
2018-04-12T00:27:40.400Z,22.84
2018-04-12T00:30:07.031Z,22.85
2018-04-12T00:32:35.085Z,22.81
2018-04-12T00:35:00.339Z,22.88
2018-04-12T00:37:27.061Z,22.83
2018-04-12T00:39:53.695Z,22.84
2018-04-12T00:42:20.365Z,22.82
2018-04-12T00:44:47.023Z,22.78
2018-04-12T00:47:13.700Z,22.77
2018-04-12T00:49:40.340Z,22.74
2018-04-12T00:52:06.978Z,22.68
2018-04-12T00:54:33.617Z,22.70
2018-04-12T00:57:00.282Z,22.72
2018-04-12T00:59:26.986Z,22.66
2018-04-12T01:01:53.692Z,22.67
2018-04-12T01:04:20.294Z,22.60
2018-04-12T01:06:48.303Z,22.64
2018-04-12T01:09:13.576Z,22.65
2018-04-12T01:11:40.241Z,22.68
2018-04-12T01:14:06.945Z,22.62
2018-04-12T01:16:33.590Z,22.66
2018-04-12T01:19:00.242Z,22.62
2018-04-12T01:21:26.965Z,22.61
2018-04-12T01:23:53.676Z,22.61
2018-04-12T01:26:20.310Z,22.61
2018-04-12T01:28:47.001Z,22.60
2018-04-12T01:31:13.758Z,22.60
2018-04-12T01:33:40.359Z,22.54
2018-04-12T01:36:07.071Z,22.55
2018-04-12T01:38:33.703Z,22.54
2018-04-12T01:41:00.376Z,22.45
2018-04-12T01:43:27.053Z,22.48
2018-04-12T01:45:53.718Z,22.45
2018-04-12T01:48:20.365Z,22.51
2018-04-12T01:50:49.768Z,22.42
2018-04-12T01:53:16.592Z,22.49
2018-04-12T01:55:43.135Z,22.42
2018-04-12T01:58:09.773Z,22.41
2018-04-12T02:00:36.430Z,22.42
2018-04-12T02:03:03.059Z,22.41
2018-04-12T02:05:29.671Z,22.41
2018-04-12T02:07:56.344Z,22.38
2018-04-12T02:10:23.992Z,22.39
2018-04-12T02:12:49.612Z,22.35
2018-04-12T02:15:19.237Z,22.38
2018-04-12T02:17:46.016Z,22.37
2018-04-12T02:20:12.613Z,22.34
2018-04-12T02:22:39.297Z,22.32
2018-04-12T02:25:05.994Z,22.32
2018-04-12T02:27:33.707Z,22.33
2018-04-12T02:29:59.305Z,22.33
2018-04-12T02:32:25.933Z,22.32
2018-04-12T02:34:52.607Z,22.26
2018-04-12T02:37:20.695Z,22.29
2018-04-12T02:39:47.289Z,22.26
2018-04-12T02:42:12.605Z,22.26
2018-04-12T02:44:42.171Z,22.27
2018-04-12T02:47:08.843Z,22.23
2018-04-12T02:49:35.459Z,22.20
2018-04-12T02:52:02.136Z,22.19
2018-04-12T02:54:28.866Z,22.20
2018-04-12T02:56:55.605Z,22.18
2018-04-12T02:59:24.798Z,22.19
2018-04-12T03:01:51.542Z,22.14
2018-04-12T03:04:19.516Z,22.14
2018-04-12T03:06:44.950Z,22.16
2018-04-12T03:09:11.588Z,22.17
2018-04-12T03:11:39.220Z,22.22
2018-04-12T03:14:04.872Z,22.13
2018-04-12T03:16:31.468Z,21.87
2018-04-12T03:18:58.100Z,21.79
2018-04-12T03:21:24.771Z,21.74
2018-04-12T03:23:51.397Z,21.75
2018-04-12T03:26:19.049Z,21.70
2018-04-12T03:28:44.764Z,21.68
2018-04-12T03:31:11.405Z,21.77
2018-04-12T03:33:38.045Z,21.66
2018-04-12T03:36:04.719Z,21.60
2018-04-12T03:38:32.426Z,21.72
2018-04-12T03:40:57.997Z,21.84
2018-04-12T03:43:24.718Z,21.85
2018-04-12T03:45:51.354Z,21.90
2018-04-12T03:48:18.243Z,21.88
2018-04-12T03:50:44.923Z,21.91
2018-04-12T03:53:11.558Z,21.90
2018-04-12T03:55:38.206Z,21.91
2018-04-12T03:58:04.829Z,21.92
2018-04-12T04:00:33.991Z,21.92
2018-04-12T04:03:00.665Z,21.96
2018-04-12T04:05:27.336Z,21.94
2018-04-12T04:07:53.974Z,21.94
2018-04-12T04:10:20.604Z,21.98
2018-04-12T04:12:47.216Z,22.02
2018-04-12T04:15:13.861Z,22.01
2018-04-12T04:17:40.509Z,22.07
2018-04-12T04:20:08.438Z,22.29
2018-04-12T04:22:37.012Z,22.37
2018-04-12T04:25:03.613Z,22.42
2018-04-12T04:27:30.261Z,22.52
2018-04-12T04:29:56.907Z,22.42
2018-04-12T04:32:23.659Z,22.42
2018-04-12T04:34:50.310Z,22.58
2018-04-12T04:37:17.071Z,22.45
2018-04-12T04:39:43.678Z,22.77
2018-04-12T04:42:10.322Z,22.83
2018-04-12T04:44:36.986Z,22.81
2018-04-12T04:47:03.691Z,22.76
2018-04-12T04:49:30.331Z,22.81
2018-04-12T04:51:58.357Z,22.80
2018-04-12T04:54:23.632Z,22.84
2018-04-12T04:56:50.342Z,22.81
2018-04-12T04:59:16.987Z,22.89
2018-04-12T05:01:43.701Z,22.97
2018-04-12T05:04:10.463Z,22.96
2018-04-12T05:06:37.204Z,23.00
2018-04-12T05:09:03.808Z,23.02
2018-04-12T05:11:30.444Z,23.06
2018-04-12T05:13:57.154Z,23.08
2018-04-12T05:16:23.855Z,23.14
2018-04-12T05:18:53.437Z,23.19
2018-04-12T05:21:20.206Z,23.26
2018-04-12T05:23:46.902Z,23.28
2018-04-12T05:26:13.577Z,23.39
2018-04-12T05:28:40.271Z,23.46
2018-04-12T05:31:06.872Z,23.55
2018-04-12T05:33:33.527Z,23.69
2018-04-12T05:36:00.222Z,23.71
2018-04-12T05:38:26.869Z,23.74
2018-04-12T05:40:53.544Z,23.88
2018-04-12T05:43:23.058Z,23.93
2018-04-12T05:45:49.739Z,23.95
2018-04-12T05:48:16.588Z,23.99
2018-04-12T05:50:44.152Z,24.15
2018-04-12T05:53:12.162Z,24.20
2018-04-12T05:55:39.649Z,24.27
2018-04-12T05:58:06.323Z,24.32
2018-04-12T06:00:32.957Z,24.40
2018-04-12T06:03:01.853Z,24.44
2018-04-12T06:05:28.521Z,24.42
2018-04-12T06:07:55.143Z,24.53
2018-04-12T06:10:23.154Z,24.63
2018-04-12T06:12:48.501Z,24.58
2018-04-12T06:15:15.140Z,24.71
2018-04-12T06:17:41.833Z,24.75
2018-04-12T06:20:08.542Z,24.76
2018-04-12T06:22:35.145Z,24.79
2018-04-12T06:25:01.851Z,24.89
2018-04-12T06:27:28.546Z,24.96
2018-04-12T06:29:55.184Z,25.05
2018-04-12T06:32:24.429Z,25.05
2018-04-12T06:34:49.712Z,25.06
2018-04-12T06:37:16.388Z,25.11
2018-04-12T06:39:43.035Z,25.09
2018-04-12T06:42:11.182Z,25.15
2018-04-12T06:44:36.965Z,25.25
2018-04-12T06:47:03.684Z,25.27
2018-04-12T06:49:30.361Z,25.35
2018-04-12T06:51:57.164Z,25.39
2018-04-12T06:54:23.907Z,25.35
2018-04-12T06:56:50.540Z,25.43
2018-04-12T06:59:17.289Z,25.44
2018-04-12T07:01:43.941Z,25.39
2018-04-12T07:04:11.876Z,25.47
2018-04-12T07:06:37.217Z,25.56
2018-04-12T07:09:03.868Z,25.63
2018-04-12T07:11:34.776Z,25.70
2018-04-12T07:14:00.521Z,25.71
2018-04-12T07:16:27.163Z,25.73
2018-04-12T07:18:53.794Z,25.75
2018-04-12T07:21:20.454Z,25.81
2018-04-12T07:23:47.104Z,25.86
2018-04-12T07:26:13.750Z,25.76
2018-04-12T07:28:40.401Z,25.78
2018-04-12T07:31:07.092Z,25.88
2018-04-12T07:33:33.921Z,25.93
2018-04-12T07:36:00.578Z,25.86
2018-04-12T07:38:27.271Z,25.98
2018-04-12T07:40:56.776Z,26.03
2018-04-12T07:43:23.449Z,26.07
2018-04-12T07:45:50.235Z,26.07
2018-04-12T07:48:21.408Z,26.09
2018-04-12T07:50:46.779Z,26.14
2018-04-12T07:53:13.390Z,26.22
2018-04-12T07:55:40.094Z,26.19
2018-04-12T07:58:06.748Z,26.30
2018-04-12T08:00:33.419Z,26.20
2018-04-12T08:03:00.084Z,26.22
2018-04-12T08:05:26.750Z,26.18
2018-04-12T08:07:53.413Z,26.11
2018-04-12T08:10:20.060Z,26.11
2018-04-12T08:12:46.760Z,26.19
2018-04-12T08:15:13.451Z,26.22
2018-04-12T08:17:42.792Z,26.12
2018-04-12T08:20:09.440Z,26.04
2018-04-12T08:22:36.118Z,26.15
2018-04-12T08:25:03.064Z,26.14
2018-04-12T08:27:29.679Z,26.19
2018-04-12T08:29:56.363Z,26.12
2018-04-12T08:32:23.003Z,26.21
2018-04-12T08:34:49.733Z,26.26
2018-04-12T08:37:16.365Z,26.26
2018-04-12T08:39:42.966Z,26.26
2018-04-12T08:42:12.487Z,26.25
2018-04-12T08:44:39.112Z,26.15
2018-04-12T08:47:05.950Z,26.13
2018-04-12T08:49:32.581Z,26.17
2018-04-12T08:51:59.330Z,26.25
2018-04-12T08:54:26.082Z,26.20
2018-04-12T08:56:52.725Z,26.17
2018-04-12T08:59:19.442Z,26.07
2018-04-12T09:01:46.558Z,26.17
2018-04-12T09:04:13.197Z,26.20
2018-04-12T09:06:39.912Z,26.23
2018-04-12T09:09:07.893Z,26.22
2018-04-12T09:11:33.175Z,26.24
2018-04-12T09:13:59.817Z,26.16
2018-04-12T09:16:27.795Z,26.20
2018-04-12T09:18:53.177Z,26.20
2018-04-12T09:21:19.823Z,26.17
2018-04-12T09:23:46.489Z,26.17
2018-04-12T09:26:14.445Z,26.16
2018-04-12T09:28:41.731Z,26.15
2018-04-12T09:31:08.520Z,26.11
2018-04-12T09:33:35.108Z,26.14
2018-04-12T09:36:01.761Z,26.16
2018-04-12T09:38:28.402Z,26.18
2018-04-12T09:40:55.073Z,26.10
2018-04-12T09:43:21.724Z,26.18
2018-04-12T09:45:48.326Z,25.89
2018-04-12T09:48:15.083Z,25.94
2018-04-12T09:50:41.767Z,26.02
2018-04-12T09:53:08.467Z,26.04
2018-04-12T09:55:35.105Z,26.13
2018-04-12T09:58:02.062Z,26.10
2018-04-12T10:00:30.904Z,26.16
2018-04-12T10:02:57.716Z,26.10
2018-04-12T10:05:25.637Z,26.19
2018-04-12T10:07:51.104Z,26.21
2018-04-12T10:10:17.918Z,26.00
2018-04-12T10:12:44.538Z,25.90
2018-04-12T10:15:11.199Z,25.73
2018-04-12T10:17:38.437Z,25.99
2018-04-12T10:20:05.072Z,26.12
2018-04-12T10:22:31.701Z,26.15
2018-04-12T10:24:58.410Z,26.18
2018-04-12T10:27:25.074Z,26.22
2018-04-12T10:29:51.732Z,26.25
2018-04-12T10:32:18.392Z,26.26
2018-04-12T10:34:45.078Z,26.19
2018-04-12T10:37:11.655Z,26.22
2018-04-12T10:39:40.572Z,26.19
2018-04-12T10:42:07.286Z,26.30
2018-04-12T10:44:33.946Z,26.27
2018-04-12T10:47:00.587Z,26.25
2018-04-12T10:49:30.489Z,26.35
2018-04-12T10:51:57.149Z,26.34
2018-04-12T10:54:23.838Z,26.32
2018-04-12T10:56:50.455Z,26.22
2018-04-12T10:59:17.483Z,26.35
2018-04-12T11:01:44.238Z,26.36
2018-04-12T11:04:10.985Z,26.30
2018-04-12T11:06:37.817Z,26.22
2018-04-12T11:09:04.483Z,26.16
2018-04-12T11:11:31.182Z,26.31
2018-04-12T11:13:57.830Z,26.42
2018-04-12T11:16:24.539Z,26.34
2018-04-12T11:18:51.481Z,26.21
2018-04-12T11:21:18.125Z,26.29
2018-04-12T11:23:44.933Z,26.35
2018-04-12T11:26:11.575Z,26.37
2018-04-12T11:28:40.995Z,26.29
2018-04-12T11:31:07.615Z,26.32
2018-04-12T11:33:34.296Z,26.30
2018-04-12T11:36:00.953Z,26.19
2018-04-12T11:38:27.690Z,26.11
2018-04-12T11:40:55.572Z,26.09
2018-04-12T11:43:21.059Z,26.16
2018-04-12T11:45:47.700Z,26.23
2018-04-12T11:48:14.470Z,26.36
2018-04-12T11:50:41.041Z,26.29
2018-04-12T11:53:07.712Z,26.37
2018-04-12T11:55:34.454Z,26.43
2018-04-12T11:58:05.209Z,26.45
2018-04-12T12:00:31.911Z,26.44
2018-04-12T12:02:58.596Z,26.38
2018-04-12T12:05:25.276Z,26.52
2018-04-12T12:07:51.917Z,26.62
2018-04-12T12:10:18.532Z,26.55
2018-04-12T12:12:45.169Z,26.40
2018-04-12T12:15:11.821Z,26.44
2018-04-12T12:17:38.464Z,26.65
2018-04-12T12:20:05.106Z,26.63
2018-04-12T12:22:31.734Z,26.68
2018-04-12T12:24:58.380Z,26.78
2018-04-12T12:27:25.020Z,26.74
2018-04-12T12:29:51.698Z,26.66
2018-04-12T12:32:18.342Z,26.77
2018-04-12T12:34:45.066Z,26.77
2018-04-12T12:37:11.729Z,26.74
2018-04-12T12:39:38.505Z,26.79
2018-04-12T12:42:05.097Z,26.68
2018-04-12T12:44:31.869Z,26.76
2018-04-12T12:46:58.473Z,26.85
2018-04-12T12:49:25.143Z,26.89
2018-04-12T12:51:51.796Z,26.84
2018-04-12T12:54:18.509Z,26.90
2018-04-12T12:56:45.160Z,26.87
2018-04-12T12:59:11.878Z,26.95
2018-04-12T13:01:38.529Z,26.99
2018-04-12T13:04:05.135Z,27.02
2018-04-12T13:06:31.937Z,27.03
2018-04-12T13:08:58.528Z,27.04
2018-04-12T13:11:25.220Z,27.05
2018-04-12T13:13:51.881Z,27.11
2018-04-12T13:16:21.392Z,27.04
2018-04-12T13:18:48.004Z,27.06
2018-04-12T13:21:14.655Z,27.08
2018-04-12T13:23:46.590Z,27.01
2018-04-12T13:26:12.106Z,27.00
2018-04-12T13:28:42.056Z,27.05
2018-04-12T13:31:11.594Z,27.15
2018-04-12T13:33:38.205Z,27.19
2018-04-12T13:36:07.150Z,27.16
2018-04-12T13:38:31.835Z,27.23
2018-04-12T13:40:58.441Z,27.11
2018-04-12T13:43:26.575Z,27.12
2018-04-12T13:45:51.947Z,27.14
2018-04-12T13:48:18.594Z,27.07
2018-04-12T13:50:45.198Z,27.08
2018-04-12T13:53:11.961Z,27.08
2018-04-12T13:55:38.621Z,27.08
2018-04-12T13:58:05.255Z,27.10
2018-04-12T14:00:31.978Z,27.09
2018-04-12T14:02:58.613Z,27.06
2018-04-12T14:05:25.399Z,27.17
2018-04-12T14:07:52.095Z,27.00
2018-04-12T14:10:18.738Z,27.01
2018-04-12T14:12:45.350Z,27.02
2018-04-12T14:15:11.991Z,27.01
2018-04-12T14:17:38.725Z,26.87
2018-04-12T14:20:05.333Z,26.91
2018-04-12T14:22:32.013Z,26.96
2018-04-12T14:24:58.693Z,26.94
2018-04-12T14:27:25.348Z,26.91
2018-04-12T14:29:52.014Z,26.90
2018-04-12T14:32:18.629Z,26.86
2018-04-12T14:34:46.834Z,26.96
2018-04-12T14:37:12.098Z,26.85
2018-04-12T14:39:38.859Z,26.95
2018-04-12T14:42:05.667Z,26.90
2018-04-12T14:44:32.297Z,26.84
2018-04-12T14:46:58.942Z,26.71
2018-04-12T14:49:27.111Z,26.95
2018-04-12T14:51:52.339Z,26.82
2018-04-12T14:54:19.290Z,26.86
2018-04-12T14:56:45.588Z,26.86
2018-04-12T14:59:13.627Z,26.86
2018-04-12T15:01:38.967Z,26.72
2018-04-12T15:04:08.300Z,26.78
2018-04-12T15:06:34.903Z,26.80
2018-04-12T15:09:01.606Z,26.75
2018-04-12T15:11:28.771Z,26.73
2018-04-12T15:13:55.453Z,26.69
2018-04-12T15:16:22.090Z,26.66
2018-04-12T15:18:48.807Z,26.65
2018-04-12T15:21:15.380Z,26.63
2018-04-12T15:23:42.144Z,26.60
2018-04-12T15:26:08.828Z,26.57
2018-04-12T15:28:35.464Z,26.53
2018-04-12T15:31:02.103Z,26.50
2018-04-12T15:33:28.718Z,26.44
2018-04-12T15:35:55.399Z,26.46
2018-04-12T15:38:22.041Z,26.46
2018-04-12T15:40:49.736Z,26.37
2018-04-12T15:43:16.385Z,26.29
2018-04-12T15:45:43.785Z,26.34
2018-04-12T15:48:10.406Z,26.35
2018-04-12T15:50:37.108Z,26.22
2018-04-12T15:53:03.670Z,26.21
2018-04-12T15:55:33.232Z,26.16
2018-04-12T15:57:59.866Z,26.12
2018-04-12T16:00:26.595Z,26.14
2018-04-12T16:02:53.355Z,26.05
2018-04-12T16:05:19.986Z,25.98
2018-04-12T16:07:46.661Z,26.04
2018-04-12T16:10:13.291Z,26.10
2018-04-12T16:12:39.969Z,26.27
2018-04-12T16:15:06.634Z,26.26
2018-04-12T16:17:33.363Z,26.24
2018-04-12T16:20:00.036Z,26.10
2018-04-12T16:22:26.648Z,26.06
2018-04-12T16:24:53.313Z,26.04
2018-04-12T16:27:19.919Z,26.03
2018-04-12T16:29:46.624Z,25.97
2018-04-12T16:32:14.743Z,25.94
2018-04-12T16:34:40.039Z,25.94
2018-04-12T16:37:06.712Z,25.90
2018-04-12T16:39:33.477Z,25.85
2018-04-12T16:42:00.123Z,25.86
2018-04-12T16:44:26.801Z,25.87
2018-04-12T16:46:56.821Z,25.83
2018-04-12T16:49:23.489Z,25.87
2018-04-12T16:51:50.220Z,25.81
2018-04-12T16:54:16.967Z,25.80
2018-04-12T16:56:46.523Z,25.81
2018-04-12T16:59:13.121Z,25.79
2018-04-12T17:01:39.794Z,25.73
2018-04-12T17:04:06.426Z,25.75
2018-04-12T17:06:33.229Z,25.74
2018-04-12T17:08:59.832Z,25.76
2018-04-12T17:11:26.504Z,25.74
2018-04-12T17:13:53.246Z,25.72
2018-04-12T17:16:22.026Z,25.70
2018-04-12T17:18:50.001Z,25.68
2018-04-12T17:21:15.344Z,25.68
2018-04-12T17:23:42.073Z,25.67
2018-04-12T17:26:08.811Z,25.67
2018-04-12T17:28:35.439Z,25.66
2018-04-12T17:31:02.045Z,25.62
2018-04-12T17:33:28.725Z,25.60
2018-04-12T17:35:55.378Z,25.60
2018-04-12T17:38:23.012Z,25.58
2018-04-12T17:40:48.732Z,25.60
2018-04-12T17:43:15.325Z,25.55
2018-04-12T17:45:44.832Z,25.54
2018-04-12T17:48:11.511Z,25.54
2018-04-12T17:50:38.108Z,25.49
2018-04-12T17:53:04.882Z,25.47
2018-04-12T17:55:31.533Z,25.49
2018-04-12T17:57:58.318Z,25.46
2018-04-12T18:00:24.965Z,25.41
2018-04-12T18:02:51.712Z,25.43
2018-04-12T18:05:18.424Z,25.44
2018-04-12T18:07:45.060Z,25.41
2018-04-12T18:10:11.727Z,25.40
2018-04-12T18:12:41.570Z,25.40
2018-04-12T18:15:08.218Z,25.38
2018-04-12T18:17:34.900Z,25.35
2018-04-12T18:20:01.637Z,25.38
2018-04-12T18:22:28.267Z,25.36
2018-04-12T18:24:54.896Z,25.35
2018-04-12T18:27:21.534Z,25.40
2018-04-12T18:29:48.207Z,25.35
2018-04-12T18:32:14.983Z,25.33
2018-04-12T18:34:41.583Z,25.30
2018-04-12T18:37:08.249Z,25.30
2018-04-12T18:39:34.994Z,25.30
2018-04-12T18:42:02.807Z,25.30
2018-04-12T18:44:28.293Z,25.28
2018-04-12T18:46:54.980Z,25.28
2018-04-12T18:49:21.614Z,25.23
2018-04-12T18:51:48.387Z,25.22
2018-04-12T18:54:15.026Z,25.22
2018-04-12T18:56:44.485Z,25.23
2018-04-12T18:59:11.207Z,25.21
2018-04-12T19:01:37.805Z,25.19
2018-04-12T19:04:04.491Z,25.16
2018-04-12T19:06:31.139Z,25.17
2018-04-12T19:08:59.257Z,25.16
2018-04-12T19:11:24.578Z,25.15
2018-04-12T19:13:51.183Z,25.12
2018-04-12T19:16:17.832Z,25.14
2018-04-12T19:18:45.810Z,25.12
2018-04-12T19:21:11.239Z,25.10
2018-04-12T19:23:37.945Z,25.08
2018-04-12T19:26:04.615Z,25.07
2018-04-12T19:28:31.290Z,25.08
2018-04-12T19:30:57.939Z,25.06
2018-04-12T19:33:24.679Z,25.05
2018-04-12T19:35:51.362Z,25.05
2018-04-12T19:38:20.122Z,25.02
2018-04-12T19:40:46.846Z,24.99
2018-04-12T19:43:13.485Z,25.00
2018-04-12T19:45:40.118Z,25.00
2018-04-12T19:48:06.823Z,24.99
2018-04-12T19:50:33.442Z,24.97
2018-04-12T19:53:00.398Z,24.96
2018-04-12T19:55:27.082Z,24.95
2018-04-12T19:57:53.849Z,24.93
2018-04-12T20:00:20.592Z,24.93
2018-04-12T20:02:47.759Z,24.90
2018-04-12T20:05:14.198Z,24.90
2018-04-12T20:07:43.789Z,24.89
2018-04-12T20:10:10.493Z,24.87
2018-04-12T20:12:40.087Z,24.87
2018-04-12T20:15:09.716Z,24.86
2018-04-12T20:17:37.819Z,24.85
2018-04-12T20:20:03.123Z,24.85
2018-04-12T20:22:29.819Z,24.82
2018-04-12T20:24:56.446Z,24.83
2018-04-12T20:27:23.101Z,24.79
2018-04-12T20:29:49.837Z,24.81
2018-04-12T20:32:16.514Z,24.77
2018-04-12T20:34:43.216Z,24.77
2018-04-12T20:37:09.853Z,24.75
2018-04-12T20:39:36.538Z,24.74
2018-04-12T20:42:03.168Z,24.72
2018-04-12T20:44:29.849Z,24.74
2018-04-12T20:46:56.460Z,24.71
2018-04-12T20:49:23.126Z,24.70
2018-04-12T20:51:49.809Z,24.69
2018-04-12T20:54:16.441Z,24.70
2018-04-12T20:56:43.205Z,24.69
2018-04-12T20:59:09.878Z,24.68
2018-04-12T21:01:39.791Z,24.69
2018-04-12T21:04:06.558Z,24.65
2018-04-12T21:06:34.857Z,24.61
2018-04-12T21:08:59.880Z,24.62
2018-04-12T21:11:26.518Z,24.61
2018-04-12T21:13:53.190Z,24.62
2018-04-12T21:16:19.819Z,24.60
2018-04-12T21:18:46.450Z,24.57
2018-04-12T21:21:13.088Z,24.54
2018-04-12T21:23:39.800Z,24.54
2018-04-12T21:26:06.398Z,24.54
2018-04-12T21:28:35.861Z,24.55
2018-04-12T21:31:02.634Z,24.51
2018-04-12T21:33:29.237Z,24.52
2018-04-12T21:35:55.962Z,24.47
2018-04-12T21:38:22.593Z,24.48
2018-04-12T21:40:49.237Z,24.48
2018-04-12T21:43:15.923Z,24.46
2018-04-12T21:45:42.597Z,24.44
2018-04-12T21:48:09.268Z,24.44
2018-04-12T21:50:35.859Z,24.43
2018-04-12T21:53:02.541Z,24.39
2018-04-12T21:55:29.225Z,24.40
2018-04-12T21:57:55.899Z,24.36
2018-04-12T22:00:22.584Z,24.35
2018-04-12T22:02:49.227Z,24.35
2018-04-12T22:05:15.909Z,24.36
2018-04-12T22:07:42.558Z,24.32
2018-04-12T22:10:09.191Z,24.34
2018-04-12T22:12:35.916Z,24.31
2018-04-12T22:15:02.593Z,24.32
2018-04-12T22:17:29.306Z,24.30
2018-04-12T22:19:55.996Z,24.30
2018-04-12T22:22:22.631Z,24.27
2018-04-12T22:24:49.244Z,24.29
2018-04-12T22:27:15.959Z,24.26
2018-04-12T22:29:42.562Z,24.25
2018-04-12T22:32:09.338Z,24.25
2018-04-12T22:34:35.970Z,24.25
2018-04-12T22:37:02.650Z,24.21
2018-04-12T22:39:29.421Z,24.19
2018-04-12T22:41:56.195Z,24.19
2018-04-12T22:44:22.798Z,24.17
2018-04-12T22:46:49.480Z,24.16
2018-04-12T22:49:16.077Z,24.15
2018-04-12T22:51:42.759Z,24.13
2018-04-12T22:54:09.453Z,24.15
2018-04-12T22:56:36.123Z,24.14
2018-04-12T22:59:02.768Z,24.12
2018-04-12T23:01:29.416Z,24.13
2018-04-12T23:03:56.015Z,24.12
2018-04-12T23:06:22.681Z,24.12
2018-04-12T23:08:49.295Z,24.10
2018-04-12T23:11:15.929Z,24.09
2018-04-12T23:13:42.597Z,24.07
2018-04-12T23:16:09.230Z,24.05
2018-04-12T23:18:35.874Z,24.08
2018-04-12T23:21:02.607Z,24.04
2018-04-12T23:23:29.209Z,24.07
2018-04-12T23:25:55.885Z,24.03
2018-04-12T23:28:22.527Z,24.02
2018-04-12T23:30:49.126Z,24.03
2018-04-12T23:33:15.769Z,24.03
2018-04-12T23:35:42.431Z,23.99
2018-04-12T23:38:09.071Z,23.99
2018-04-12T23:40:35.673Z,23.97
2018-04-12T23:43:02.346Z,24.00
2018-04-12T23:45:28.991Z,23.96
2018-04-12T23:47:55.627Z,23.97
2018-04-12T23:50:22.226Z,23.94
2018-04-12T23:52:48.909Z,23.94
2018-04-12T23:55:15.579Z,23.92
2018-04-12T23:57:42.216Z,23.92
